Titusville, FL

5:20 AM EDT on May 23, 2015 (GMT -0400)
Royal Oak | | Change Station
CLOSE
Current Station
Personal Weather Station
Location: Titusville, FL
Elevation: 59 ft
Nearby Weather Stations

Elev 59 ft 28.58 °N, 80.83 °W | Updated 15 minutes ago

Clear
Clear
70.5 °F
Feels Like 70.5 °F
N
0.0
Wind Variable Wind from ESE

Today
High -- | Low -- °F
--% Chance of Precip.
Yesterday
High -- | Low -- °F
Precip. -- in
6:28 AM 8:11 PM
Waxing Crescent, 28% visible
Pressure 30.17 in
Visibility 10.0 miles
Clouds Clear
Dew Point 68 °F
Humidity 92%
Rainfall 0.00 in
Snow Depth Not available.
UV 0 out of 12
Pollen 5.30 out of 12
Air Quality Not available.
Flu Activity Sporadic
METAR KTTS 230858Z AUTO 31001KT 10SM CLR 21/20 A3015 RMK AO2 SLP214 T02130203 53002

More Conditions Fewer Conditions

Pressure 30.17 in
Visibility 10.0 miles
Clouds Clear
Dew Point 68 °F
Humidity 92%
Rainfall 0.00 in
Snow Depth Not available.
UV 0 out of 12
Pollen 5.30 out of 12
Air Quality Not available.
Flu Activity Sporadic
METAR KTTS 230858Z AUTO 31001KT 10SM CLR 21/20 A3015 RMK AO2 SLP214 T02130203 53002

More Conditions Fewer Conditions

Nowcast | as of 4:37 am EDT on May 23, 2015

Isolated showers and lightning storms...near a weakening frontal boundary...will drift west to southwest over the Atlantic waters offshore from about Fort Pierce to the Palm beaches early this morning. There is a slight chance for showers along the coast and even a storm south of St Lucie inlet. Additional details...including graphics are available online at: http://www.Srh.NOAA.Gov/mlb/blog.Php

×

10-Day Weather Forecast

Almanac

Astronomy

May. 23, 2015 Rise Set
Actual Time
Civil Twilight
Nautical Twilight
Astronomical Twilight
Moon
Length of Visible Light
Length of Day
Tomorrow will be .
, % of the Moon is Illuminated

Today's Extremes

State Highs State Lows

Community

WunderPhotos

Upload Photos

1,823,404 photos uploaded!

WunderBlogs® & News

Nearby

Air Quality

  Air Quality AQ Index Pollutant
Not available.

Snow Depth

Station Depth Elevation

Earthquake Activity

City Distance Mag. Time & Date
Minimum magnitude displayed is 2.5.

Coastal Water Temperatures

Place Temperature

Stations

Nearby Weather Stations

Station Location Temp. Windchill Dew Point Humidity Wind Precip. Elev Updated Type